createdAt,value
2023-03-22T00:00:37.310Z,3.44
2023-03-22T00:01:54.433Z,3.45
2023-03-22T00:02:57.368Z,3.41
2023-03-22T00:04:00.497Z,3.34
2023-03-22T00:05:03.400Z,3.28
2023-03-22T00:06:06.706Z,3.17
2023-03-22T00:07:09.473Z,3.13
2023-03-22T00:08:13.506Z,3.06
2023-03-22T00:09:16.299Z,3.02
2023-03-22T00:10:19.035Z,3.00
2023-03-22T00:11:24.338Z,2.95
2023-03-22T00:12:27.075Z,2.96
2023-03-22T00:13:30.393Z,2.94
2023-03-22T00:14:33.214Z,2.98
2023-03-22T00:15:36.527Z,3.01
2023-03-22T00:16:39.606Z,3.05
2023-03-22T00:17:42.365Z,3.07
2023-03-22T00:18:45.535Z,3.04
2023-03-22T00:19:49.616Z,3.03
2023-03-22T00:20:57.443Z,3.01
2023-03-22T00:22:01.224Z,3.06
2023-03-22T00:23:04.051Z,3.06
2023-03-22T00:24:07.228Z,3.12
2023-03-22T00:25:10.856Z,3.06
2023-03-22T00:26:15.483Z,3.08
2023-03-22T00:27:18.614Z,3.05
2023-03-22T00:28:21.887Z,3.04
2023-03-22T00:29:24.632Z,3.05
2023-03-22T00:30:29.323Z,3.03
2023-03-22T00:31:32.159Z,3.04
2023-03-22T00:32:36.456Z,3.03
2023-03-22T00:33:39.335Z,3.00
2023-03-22T00:34:42.116Z,2.99
2023-03-22T00:35:53.110Z,2.98
2023-03-22T00:36:56.689Z,2.95
2023-03-22T00:38:14.173Z,2.93
2023-03-22T00:39:18.024Z,2.89
2023-03-22T00:40:20.805Z,2.85
2023-03-22T00:41:24.396Z,2.80
2023-03-22T00:42:27.449Z,2.76
2023-03-22T00:43:30.194Z,2.73
2023-03-22T00:44:33.118Z,2.74
2023-03-22T00:45:40.975Z,2.76
2023-03-22T00:46:43.769Z,2.72
2023-03-22T00:47:46.590Z,2.68
2023-03-22T00:48:49.750Z,2.63
2023-03-22T00:49:52.534Z,2.61
2023-03-22T00:50:55.322Z,2.61
2023-03-22T00:51:58.254Z,2.62
2023-03-22T00:53:01.319Z,2.63
2023-03-22T00:54:04.150Z,2.63
2023-03-22T00:55:07.902Z,2.62
2023-03-22T00:56:16.083Z,2.61
2023-03-22T00:57:41.607Z,2.58
2023-03-22T00:58:44.431Z,2.54
2023-03-22T00:59:47.359Z,2.55
2023-03-22T01:00:50.391Z,2.51
2023-03-22T01:01:53.266Z,2.52
2023-03-22T01:02:59.832Z,2.47
2023-03-22T01:04:03.096Z,2.50
2023-03-22T01:05:07.531Z,2.48
2023-03-22T01:06:11.485Z,2.47
2023-03-22T01:07:21.569Z,2.45
2023-03-22T01:08:24.532Z,2.48
2023-03-22T01:09:29.629Z,2.48
2023-03-22T01:10:32.443Z,2.51
2023-03-22T01:11:35.341Z,2.58
2023-03-22T01:12:38.926Z,2.56
2023-03-22T01:13:41.993Z,2.61
2023-03-22T01:14:45.271Z,2.60
2023-03-22T01:15:51.041Z,2.65
2023-03-22T01:16:57.382Z,2.68
2023-03-22T01:18:00.685Z,2.73
2023-03-22T01:19:03.665Z,2.78
2023-03-22T01:20:07.886Z,2.80
2023-03-22T01:21:10.703Z,2.81
2023-03-22T01:22:13.686Z,2.82
2023-03-22T01:23:16.632Z,2.81
2023-03-22T01:24:19.601Z,2.83
2023-03-22T01:25:22.456Z,2.84
2023-03-22T01:26:25.227Z,2.83
2023-03-22T01:27:28.033Z,2.83
2023-03-22T01:28:31.250Z,2.81
2023-03-22T01:29:35.436Z,2.80
2023-03-22T01:30:41.958Z,2.77
2023-03-22T01:31:45.043Z,2.71
2023-03-22T01:32:48.657Z,2.65
2023-03-22T01:33:53.038Z,2.63
2023-03-22T01:34:57.624Z,2.60
2023-03-22T01:36:01.941Z,2.57
2023-03-22T01:37:05.361Z,2.54
2023-03-22T01:38:08.860Z,2.50
2023-03-22T01:39:15.321Z,2.45
2023-03-22T01:40:19.132Z,2.45
2023-03-22T01:41:22.996Z,2.43
2023-03-22T01:42:27.016Z,2.41
2023-03-22T01:43:30.573Z,2.40
2023-03-22T01:44:33.878Z,2.40
2023-03-22T01:45:47.509Z,2.35
2023-03-22T01:46:51.489Z,2.35
2023-03-22T01:48:15.719Z,2.32
2023-03-22T01:49:29.224Z,2.31
2023-03-22T01:50:32.464Z,2.31
2023-03-22T01:51:35.621Z,2.28
2023-03-22T01:53:00.510Z,2.24
2023-03-22T01:54:10.823Z,2.22
2023-03-22T01:55:13.977Z,2.27
2023-03-22T01:56:25.601Z,2.26
2023-03-22T01:57:29.513Z,2.22
2023-03-22T01:58:37.135Z,2.18
2023-03-22T01:59:42.983Z,2.18
2023-03-22T02:00:52.965Z,2.19
2023-03-22T02:02:22.290Z,2.19
2023-03-22T02:04:00.037Z,2.15
2023-03-22T02:05:04.215Z,2.17
2023-03-22T02:06:07.610Z,2.14
2023-03-22T02:07:15.808Z,2.17
2023-03-22T02:08:20.292Z,2.21
2023-03-22T02:09:41.358Z,2.20
2023-03-22T02:10:44.690Z,2.21
2023-03-22T02:12:13.417Z,2.22
2023-03-22T02:14:13.065Z,2.27
2023-03-22T02:15:50.842Z,2.21
2023-03-22T02:18:16.556Z,2.18
2023-03-22T02:19:30.633Z,2.18
2023-03-22T02:20:55.270Z,2.19
2023-03-22T02:22:30.593Z,2.17
2023-03-22T02:24:05.537Z,2.14
2023-03-22T02:25:20.168Z,2.11
2023-03-22T02:26:44.130Z,2.09
2023-03-22T02:28:08.113Z,2.05
2023-03-22T02:29:45.165Z,2.04
2023-03-22T02:31:29.005Z,2.02
2023-03-22T02:32:43.726Z,1.99
2023-03-22T02:33:55.826Z,2.00
2023-03-22T02:35:33.507Z,1.99
2023-03-22T02:37:01.769Z,1.94
2023-03-22T02:38:38.593Z,1.95
2023-03-22T02:40:10.686Z,1.94
2023-03-22T02:41:35.910Z,1.89
2023-03-22T02:42:55.747Z,1.91
2023-03-22T02:44:01.216Z,1.90
2023-03-22T02:45:14.369Z,1.90
2023-03-22T02:46:32.767Z,1.91
2023-03-22T02:47:38.697Z,1.90
2023-03-22T02:48:47.552Z,1.90
2023-03-22T02:50:03.635Z,1.89
2023-03-22T02:51:15.528Z,1.85
2023-03-22T02:52:44.860Z,1.84
2023-03-22T02:54:03.577Z,1.83
2023-03-22T02:55:13.301Z,1.84
2023-03-22T02:56:33.731Z,1.84
2023-03-22T02:57:52.776Z,1.83
2023-03-22T02:58:59.541Z,1.87
2023-03-22T03:00:10.469Z,1.87
2023-03-22T03:01:20.084Z,1.89
2023-03-22T03:02:23.293Z,1.91
2023-03-22T03:03:30.541Z,1.93
2023-03-22T03:04:37.950Z,1.99
2023-03-22T03:05:48.712Z,1.99
2023-03-22T03:06:55.061Z,2.01
2023-03-22T03:08:02.513Z,2.07
2023-03-22T03:09:06.480Z,2.09
2023-03-22T03:10:11.488Z,2.09
2023-03-22T03:11:14.293Z,2.13
2023-03-22T03:12:23.301Z,2.11
2023-03-22T03:13:27.327Z,2.13
2023-03-22T03:14:32.832Z,2.13
2023-03-22T03:15:39.503Z,2.15
2023-03-22T03:16:42.548Z,2.13
2023-03-22T03:17:51.755Z,2.09
2023-03-22T03:19:02.848Z,2.08
2023-03-22T03:20:42.629Z,2.03
2023-03-22T03:22:09.672Z,2.01
2023-03-22T03:23:24.510Z,2.01
2023-03-22T03:24:37.344Z,2.00
2023-03-22T03:26:04.549Z,2.03
2023-03-22T03:27:10.806Z,2.01
2023-03-22T03:28:38.533Z,1.99
2023-03-22T03:29:48.953Z,2.05
2023-03-22T03:31:03.588Z,2.05
2023-03-22T03:32:15.545Z,2.07
2023-03-22T03:33:22.309Z,2.08
2023-03-22T03:34:34.012Z,2.07
2023-03-22T03:35:46.704Z,2.08
2023-03-22T03:37:02.975Z,2.11
2023-03-22T03:38:13.463Z,2.13
2023-03-22T03:39:18.841Z,2.11
2023-03-22T03:40:29.058Z,2.16
2023-03-22T03:41:34.671Z,2.15
2023-03-22T03:42:41.473Z,2.14
2023-03-22T03:43:46.890Z,2.19
2023-03-22T03:44:50.023Z,2.19
2023-03-22T03:45:54.335Z,2.17
2023-03-22T03:46:57.788Z,2.17
2023-03-22T03:48:05.066Z,2.21
2023-03-22T03:49:10.395Z,2.18
2023-03-22T03:50:16.342Z,2.19
2023-03-22T03:51:19.441Z,2.17
2023-03-22T03:52:24.644Z,2.20
2023-03-22T03:53:28.774Z,2.21
2023-03-22T03:54:31.869Z,2.23
2023-03-22T03:55:34.838Z,2.24
2023-03-22T03:56:37.603Z,2.24
2023-03-22T03:57:40.487Z,2.24
2023-03-22T03:58:43.286Z,2.25
2023-03-22T03:59:46.407Z,2.25
2023-03-22T04:00:57.464Z,2.25
2023-03-22T04:02:23.958Z,2.27
2023-03-22T04:03:27.766Z,2.25
2023-03-22T04:04:48.486Z,2.25
2023-03-22T04:05:51.495Z,2.24
2023-03-22T04:07:00.622Z,2.23
2023-03-22T04:08:05.376Z,2.23
2023-03-22T04:09:09.104Z,2.23
2023-03-22T04:10:15.479Z,2.24
2023-03-22T04:11:18.428Z,2.23
2023-03-22T04:12:23.348Z,2.24
2023-03-22T04:13:44.634Z,2.25
2023-03-22T04:14:50.801Z,2.25
2023-03-22T04:15:58.097Z,2.26
2023-03-22T04:17:01.308Z,2.27
2023-03-22T04:18:07.138Z,2.27
2023-03-22T04:19:10.070Z,2.27
2023-03-22T04:20:14.039Z,2.26
2023-03-22T04:21:17.003Z,2.28
2023-03-22T04:22:25.311Z,2.29
2023-03-22T04:23:28.168Z,2.30
2023-03-22T04:24:31.090Z,2.28
2023-03-22T04:25:33.999Z,2.32
2023-03-22T04:26:43.372Z,2.32
2023-03-22T04:28:13.736Z,2.29
2023-03-22T04:29:16.642Z,2.29
2023-03-22T04:30:24.719Z,2.30
2023-03-22T04:31:37.613Z,2.36
2023-03-22T04:32:51.553Z,2.36
2023-03-22T04:33:56.834Z,2.34
2023-03-22T04:35:06.668Z,2.40
2023-03-22T04:36:10.387Z,2.43
2023-03-22T04:37:27.592Z,2.50
2023-03-22T04:39:05.954Z,2.53
2023-03-22T04:40:16.444Z,2.53
2023-03-22T04:41:31.517Z,2.52
2023-03-22T04:42:34.894Z,2.47
2023-03-22T04:43:50.956Z,2.46
2023-03-22T04:44:53.927Z,2.48
2023-03-22T04:45:58.412Z,2.44
2023-03-22T04:47:04.940Z,2.43
2023-03-22T04:48:10.552Z,2.46
2023-03-22T04:49:13.563Z,2.42
2023-03-22T04:50:17.329Z,2.41
2023-03-22T04:51:25.546Z,2.40
2023-03-22T04:52:41.610Z,2.41
2023-03-22T04:53:44.999Z,2.44
2023-03-22T04:54:48.198Z,2.42
2023-03-22T04:55:50.950Z,2.43
2023-03-22T04:56:54.065Z,2.44
2023-03-22T04:57:58.615Z,2.41
2023-03-22T04:59:01.486Z,2.41
2023-03-22T05:00:08.410Z,2.43
2023-03-22T05:01:13.675Z,2.42
2023-03-22T05:02:17.223Z,2.44
2023-03-22T05:03:21.644Z,2.47
2023-03-22T05:04:27.364Z,2.50
2023-03-22T05:05:36.383Z,2.52
2023-03-22T05:06:39.506Z,2.49
2023-03-22T05:07:47.680Z,2.54
2023-03-22T05:08:50.650Z,2.52
2023-03-22T05:09:54.671Z,2.54
2023-03-22T05:10:59.718Z,2.58
2023-03-22T05:12:02.548Z,2.58
2023-03-22T05:13:21.547Z,2.64
2023-03-22T05:14:24.930Z,2.64
2023-03-22T05:15:28.187Z,2.67
2023-03-22T05:16:31.009Z,2.69
2023-03-22T05:17:33.805Z,2.76
2023-03-22T05:18:42.478Z,2.74
2023-03-22T05:19:45.865Z,2.81
2023-03-22T05:20:48.767Z,2.83
2023-03-22T05:21:58.522Z,2.85
2023-03-22T05:23:10.991Z,2.86
2023-03-22T05:24:14.646Z,2.89
2023-03-22T05:25:19.549Z,2.95
2023-03-22T05:26:24.524Z,2.99
2023-03-22T05:27:31.760Z,3.00
2023-03-22T05:28:54.663Z,3.08
2023-03-22T05:30:14.415Z,3.14
2023-03-22T05:31:23.431Z,3.16
2023-03-22T05:32:33.049Z,3.22
2023-03-22T05:33:36.178Z,3.27
2023-03-22T05:34:42.746Z,3.30
2023-03-22T05:35:54.161Z,3.34
2023-03-22T05:36:58.246Z,3.39
2023-03-22T05:38:08.256Z,3.44
2023-03-22T05:39:16.461Z,3.47
2023-03-22T05:40:19.393Z,3.52
2023-03-22T05:41:23.093Z,3.58
2023-03-22T05:42:26.945Z,3.64
2023-03-22T05:43:29.829Z,3.68
2023-03-22T05:44:32.637Z,3.73
2023-03-22T05:45:42.859Z,3.79
2023-03-22T05:47:00.743Z,3.88
2023-03-22T05:48:10.785Z,3.98
2023-03-22T05:49:13.566Z,4.03
2023-03-22T05:50:19.612Z,4.12
2023-03-22T05:51:25.816Z,4.22
2023-03-22T05:52:29.720Z,4.30
2023-03-22T05:54:04.513Z,4.48
2023-03-22T05:55:14.240Z,4.55
2023-03-22T05:56:17.853Z,4.67
2023-03-22T05:57:21.675Z,4.80
2023-03-22T05:58:25.109Z,4.90
2023-03-22T05:59:28.572Z,5.06
2023-03-22T06:00:35.791Z,5.21
2023-03-22T06:02:04.797Z,5.39
2023-03-22T06:03:08.239Z,5.56
2023-03-22T06:04:14.573Z,5.81
2023-03-22T06:05:26.451Z,6.11
2023-03-22T06:06:29.376Z,6.35
2023-03-22T06:07:40.660Z,6.70
2023-03-22T06:08:57.845Z,7.04
2023-03-22T06:10:07.110Z,7.26
2023-03-22T06:11:10.050Z,7.44
2023-03-22T06:12:15.518Z,7.59
2023-03-22T06:13:21.221Z,7.78
2023-03-22T06:14:25.185Z,7.97
2023-03-22T06:15:54.183Z,8.13
2023-03-22T06:17:00.939Z,8.24
2023-03-22T06:18:03.750Z,8.41
2023-03-22T06:19:11.157Z,8.60
2023-03-22T06:20:15.549Z,8.74
2023-03-22T06:21:24.132Z,8.89
2023-03-22T06:22:27.011Z,8.86
2023-03-22T06:23:29.889Z,8.78
2023-03-22T06:24:33.202Z,8.69
2023-03-22T06:25:36.793Z,8.64
2023-03-22T06:26:40.390Z,8.62
2023-03-22T06:27:43.311Z,8.58
2023-03-22T06:28:46.678Z,8.55
2023-03-22T06:29:51.073Z,8.50
2023-03-22T06:30:56.391Z,8.48
2023-03-22T06:32:20.711Z,8.41
2023-03-22T06:33:23.632Z,8.39
2023-03-22T06:34:34.027Z,8.35
2023-03-22T06:35:37.183Z,8.40
2023-03-22T06:36:42.487Z,8.38
2023-03-22T06:37:52.902Z,8.43
2023-03-22T06:38:57.437Z,8.41
2023-03-22T06:40:00.256Z,8.43
2023-03-22T06:41:03.293Z,8.45
2023-03-22T06:42:06.435Z,8.50
2023-03-22T06:43:09.802Z,8.50
2023-03-22T06:44:14.902Z,8.50
2023-03-22T06:45:33.502Z,8.52
2023-03-22T06:46:37.175Z,8.52
2023-03-22T06:47:46.554Z,8.57
2023-03-22T06:48:59.924Z,8.59
2023-03-22T06:50:02.944Z,8.62
2023-03-22T06:51:25.733Z,8.66
2023-03-22T06:52:29.152Z,8.70
2023-03-22T06:53:33.662Z,8.76
2023-03-22T06:54:36.697Z,8.78
2023-03-22T06:55:40.624Z,8.79
2023-03-22T06:56:48.184Z,8.83
2023-03-22T06:57:51.058Z,8.83
2023-03-22T06:58:54.807Z,8.82
2023-03-22T06:59:57.571Z,8.85
2023-03-22T07:01:01.016Z,8.84
2023-03-22T07:02:04.604Z,8.91
2023-03-22T07:03:07.686Z,8.89
2023-03-22T07:04:33.281Z,8.82
2023-03-22T07:05:36.063Z,8.86
2023-03-22T07:06:38.938Z,8.85
2023-03-22T07:07:41.754Z,8.85
2023-03-22T07:08:44.598Z,8.86
2023-03-22T07:09:48.168Z,8.86
2023-03-22T07:10:51.868Z,8.86
2023-03-22T07:11:57.370Z,8.87
2023-03-22T07:13:00.481Z,8.88
2023-03-22T07:14:03.590Z,8.91
2023-03-22T07:15:24.331Z,8.92
2023-03-22T07:16:35.872Z,8.94
2023-03-22T07:17:41.367Z,8.98
2023-03-22T07:18:44.268Z,8.96
2023-03-22T07:19:47.039Z,8.96
2023-03-22T07:20:51.007Z,8.97
2023-03-22T07:21:53.801Z,9.01
2023-03-22T07:22:57.350Z,9.01
2023-03-22T07:24:01.229Z,9.00
2023-03-22T07:25:05.406Z,9.02
2023-03-22T07:26:08.669Z,9.05
2023-03-22T07:27:14.418Z,9.06
2023-03-22T07:28:17.210Z,9.04
2023-03-22T07:29:19.994Z,9.09
2023-03-22T07:30:22.766Z,9.15
2023-03-22T07:31:26.070Z,9.18
2023-03-22T07:32:33.545Z,9.24
2023-03-22T07:33:45.354Z,9.28
2023-03-22T07:34:48.154Z,9.32
2023-03-22T07:35:52.761Z,9.36
2023-03-22T07:36:57.055Z,9.43
2023-03-22T07:38:00.921Z,9.48
2023-03-22T07:39:08.697Z,9.55
2023-03-22T07:40:15.646Z,9.59
2023-03-22T07:41:18.721Z,9.65
2023-03-22T07:42:38.865Z,9.70
2023-03-22T07:44:07.916Z,9.79
2023-03-22T07:45:23.792Z,9.87
2023-03-22T07:46:45.142Z,9.92
2023-03-22T07:47:58.049Z,10.05
2023-03-22T07:49:33.053Z,10.15
2023-03-22T07:50:59.180Z,10.26
2023-03-22T07:52:02.120Z,10.37
2023-03-22T07:53:05.059Z,10.48
2023-03-22T07:54:07.993Z,10.59
2023-03-22T07:55:13.001Z,10.70
2023-03-22T07:56:15.770Z,10.78
2023-03-22T07:57:18.594Z,10.83
2023-03-22T07:58:30.735Z,10.87
2023-03-22T07:59:34.117Z,10.94
2023-03-22T08:00:37.814Z,11.00
2023-03-22T08:02:03.979Z,10.98
2023-03-22T08:03:14.882Z,11.04
2023-03-22T08:04:55.026Z,11.04
2023-03-22T08:06:21.523Z,11.05
2023-03-22T08:07:27.875Z,11.10
2023-03-22T08:08:30.701Z,11.10
2023-03-22T08:09:33.663Z,11.15
2023-03-22T08:10:37.081Z,11.14
2023-03-22T08:11:40.522Z,11.15
2023-03-22T08:12:43.722Z,11.18
2023-03-22T08:13:55.349Z,11.17
2023-03-22T08:14:58.570Z,11.20
2023-03-22T08:16:02.143Z,11.24
2023-03-22T08:17:06.173Z,11.21
2023-03-22T08:18:09.093Z,11.22
2023-03-22T08:19:15.505Z,11.22
2023-03-22T08:20:18.912Z,11.25
2023-03-22T08:21:27.473Z,11.24
2023-03-22T08:22:31.282Z,11.28
2023-03-22T08:23:53.359Z,11.30
2023-03-22T08:25:19.801Z,11.30
2023-03-22T08:26:23.390Z,11.33
2023-03-22T08:27:27.559Z,11.39
2023-03-22T08:28:30.589Z,11.40
2023-03-22T08:29:33.980Z,11.46
2023-03-22T08:30:38.734Z,11.53
2023-03-22T08:31:42.430Z,11.61
2023-03-22T08:32:46.480Z,11.63
2023-03-22T08:33:49.949Z,11.71
2023-03-22T08:34:52.908Z,11.76
2023-03-22T08:36:25.695Z,11.80
2023-03-22T08:37:34.028Z,11.81
2023-03-22T08:38:37.692Z,11.82
2023-03-22T08:39:43.511Z,11.79
2023-03-22T08:41:05.131Z,11.78
2023-03-22T08:42:07.963Z,11.78
2023-03-22T08:43:11.726Z,11.75
2023-03-22T08:44:14.569Z,11.73
2023-03-22T08:45:17.702Z,11.72
2023-03-22T08:46:26.487Z,11.72
2023-03-22T08:47:30.178Z,11.74
2023-03-22T08:48:38.056Z,11.72
2023-03-22T08:49:45.877Z,11.72
2023-03-22T08:50:54.916Z,11.71
2023-03-22T08:52:07.847Z,11.73
2023-03-22T08:53:18.248Z,11.77
2023-03-22T08:54:28.254Z,11.78
2023-03-22T08:55:45.008Z,11.78
2023-03-22T08:56:48.339Z,11.79
2023-03-22T08:58:01.528Z,11.79
2023-03-22T08:59:24.744Z,11.79
2023-03-22T09:00:47.794Z,11.78
2023-03-22T09:02:06.640Z,11.77
2023-03-22T09:03:09.538Z,11.75
2023-03-22T09:04:13.422Z,11.70
2023-03-22T09:05:16.676Z,11.67
2023-03-22T09:06:19.762Z,11.61
2023-03-22T09:07:22.823Z,11.58
2023-03-22T09:08:33.968Z,11.52
2023-03-22T09:09:41.660Z,11.51
2023-03-22T09:10:47.878Z,11.49
2023-03-22T09:11:50.927Z,11.51
2023-03-22T09:12:53.876Z,11.46
2023-03-22T09:13:56.752Z,11.46
2023-03-22T09:14:59.586Z,11.47
2023-03-22T09:16:04.250Z,11.52
2023-03-22T09:17:09.062Z,11.51
2023-03-22T09:18:12.278Z,11.50
2023-03-22T09:19:15.516Z,11.53
2023-03-22T09:20:18.807Z,11.53
2023-03-22T09:21:22.429Z,11.54
2023-03-22T09:22:52.677Z,11.54
2023-03-22T09:23:56.528Z,11.64
2023-03-22T09:25:05.053Z,11.63
2023-03-22T09:26:09.500Z,11.68
2023-03-22T09:27:12.598Z,11.70
2023-03-22T09:28:17.180Z,11.76
2023-03-22T09:29:20.604Z,11.77
2023-03-22T09:30:23.829Z,11.78
2023-03-22T09:31:27.001Z,11.79
2023-03-22T09:32:41.079Z,11.79
2023-03-22T09:33:44.196Z,11.82
2023-03-22T09:34:46.952Z,11.82
2023-03-22T09:35:50.097Z,11.79
2023-03-22T09:36:55.738Z,11.79
2023-03-22T09:38:03.585Z,11.74
2023-03-22T09:39:07.655Z,11.72
2023-03-22T09:40:11.870Z,11.70
2023-03-22T09:41:21.913Z,11.71
2023-03-22T09:42:33.015Z,11.72
2023-03-22T09:43:43.636Z,11.70
2023-03-22T09:44:49.782Z,11.68
2023-03-22T09:45:55.737Z,11.69
2023-03-22T09:47:02.201Z,11.76
2023-03-22T09:48:12.242Z,11.77
2023-03-22T09:49:21.282Z,11.79
2023-03-22T09:50:32.432Z,11.80
2023-03-22T09:51:44.843Z,11.83
2023-03-22T09:52:48.384Z,11.86
2023-03-22T09:53:51.127Z,11.96
2023-03-22T09:54:53.945Z,12.02
2023-03-22T09:56:13.908Z,12.08
2023-03-22T09:57:26.319Z,12.13
2023-03-22T09:58:55.180Z,12.20
2023-03-22T10:00:16.821Z,12.24
2023-03-22T10:01:35.238Z,12.24
2023-03-22T10:03:05.368Z,12.25
2023-03-22T10:04:19.031Z,12.28
2023-03-22T10:05:36.088Z,12.30
2023-03-22T10:06:43.309Z,12.31
2023-03-22T10:08:04.289Z,12.30
2023-03-22T10:09:19.437Z,12.30
2023-03-22T10:10:24.583Z,12.29
2023-03-22T10:11:47.232Z,12.27
2023-03-22T10:13:15.392Z,12.23
2023-03-22T10:14:41.566Z,12.22
2023-03-22T10:15:51.572Z,12.22
2023-03-22T10:16:56.611Z,12.23
2023-03-22T10:18:02.361Z,12.21
2023-03-22T10:19:24.244Z,12.19
2023-03-22T10:20:35.878Z,12.18
2023-03-22T10:21:39.092Z,12.17
2023-03-22T10:22:46.231Z,12.22
2023-03-22T10:24:04.402Z,12.22
2023-03-22T10:25:08.746Z,12.23
2023-03-22T10:26:26.404Z,12.24
2023-03-22T10:27:31.635Z,12.27
2023-03-22T10:28:34.351Z,12.38
2023-03-22T10:29:40.964Z,12.40
2023-03-22T10:30:51.017Z,12.42
2023-03-22T10:31:54.517Z,12.46
2023-03-22T10:33:01.769Z,12.49
2023-03-22T10:34:11.536Z,12.54
2023-03-22T10:35:15.997Z,12.58
2023-03-22T10:36:23.583Z,12.63
2023-03-22T10:37:35.828Z,12.65
2023-03-22T10:38:47.072Z,12.66
2023-03-22T10:39:54.366Z,12.67
2023-03-22T10:40:59.249Z,12.66
2023-03-22T10:42:05.924Z,12.68
2023-03-22T10:43:12.002Z,12.70
2023-03-22T10:44:17.390Z,12.70
2023-03-22T10:45:21.450Z,12.73
2023-03-22T10:46:33.509Z,12.68
2023-03-22T10:47:48.643Z,12.64
2023-03-22T10:48:57.301Z,12.64
2023-03-22T10:50:04.720Z,12.64
2023-03-22T10:51:08.383Z,12.64
2023-03-22T10:52:28.641Z,12.63
2023-03-22T10:53:46.017Z,12.64
2023-03-22T10:54:48.880Z,12.60
2023-03-22T10:55:51.730Z,12.57
2023-03-22T10:56:54.641Z,12.56
2023-03-22T10:58:16.614Z,12.56
2023-03-22T10:59:47.548Z,12.57
2023-03-22T11:00:57.177Z,12.62
2023-03-22T11:02:01.763Z,12.67
2023-03-22T11:03:07.143Z,12.70
2023-03-22T11:04:15.196Z,12.72
2023-03-22T11:05:30.035Z,12.73
2023-03-22T11:06:38.556Z,12.75
2023-03-22T11:07:45.288Z,12.76
2023-03-22T11:09:02.724Z,12.77
2023-03-22T11:10:08.000Z,12.77
2023-03-22T11:11:23.623Z,12.77
2023-03-22T11:12:26.438Z,12.79
2023-03-22T11:13:29.425Z,12.83
2023-03-22T11:14:37.647Z,12.84
2023-03-22T11:15:49.139Z,12.84
2023-03-22T11:16:51.991Z,12.84
2023-03-22T11:18:00.535Z,12.85
2023-03-22T11:19:03.851Z,12.86
2023-03-22T11:20:07.923Z,12.89
2023-03-22T11:21:12.649Z,12.91
2023-03-22T11:22:36.448Z,12.92
2023-03-22T11:23:46.877Z,12.93
2023-03-22T11:24:51.616Z,12.93
2023-03-22T11:25:59.220Z,12.92
2023-03-22T11:27:20.060Z,12.90
2023-03-22T11:28:31.754Z,12.89
2023-03-22T11:29:48.333Z,12.89
2023-03-22T11:31:04.164Z,12.90
2023-03-22T11:32:26.516Z,12.91
2023-03-22T11:33:29.961Z,12.92
2023-03-22T11:34:32.723Z,12.92
2023-03-22T11:35:38.881Z,12.92
2023-03-22T11:37:53.886Z,12.97
2023-03-22T11:39:02.466Z,13.00
2023-03-22T11:40:10.867Z,13.04
2023-03-22T11:41:13.582Z,13.09
2023-03-22T11:42:20.974Z,13.15
2023-03-22T11:43:28.139Z,13.20
2023-03-22T11:44:37.887Z,13.26
2023-03-22T11:45:43.344Z,13.32
2023-03-22T11:46:57.910Z,13.40
2023-03-22T11:48:03.582Z,13.44
2023-03-22T11:49:14.834Z,13.48
2023-03-22T11:50:30.380Z,13.52
2023-03-22T11:51:37.281Z,13.55
2023-03-22T11:52:40.024Z,13.55
2023-03-22T11:53:47.408Z,13.55
2023-03-22T11:54:51.238Z,13.54
2023-03-22T11:55:57.105Z,13.51
2023-03-22T11:57:04.495Z,13.48
2023-03-22T11:58:07.297Z,13.47
2023-03-22T11:59:16.659Z,13.49
2023-03-22T12:00:23.733Z,13.54
2023-03-22T12:01:38.931Z,13.59
2023-03-22T12:02:51.224Z,13.62
2023-03-22T12:03:58.076Z,13.66
2023-03-22T12:05:03.808Z,13.70
2023-03-22T12:06:22.887Z,13.73
2023-03-22T12:07:28.417Z,13.77
2023-03-22T12:08:42.872Z,13.81
2023-03-22T12:09:54.523Z,13.88
2023-03-22T12:11:07.025Z,13.95
2023-03-22T12:12:16.700Z,14.01
2023-03-22T12:13:27.048Z,14.07
2023-03-22T12:14:46.757Z,14.11
2023-03-22T12:15:56.554Z,14.18
2023-03-22T12:17:11.790Z,14.24
2023-03-22T12:18:34.431Z,14.27
2023-03-22T12:20:12.869Z,14.32
2023-03-22T12:21:16.702Z,14.39
2023-03-22T12:22:32.712Z,14.42
2023-03-22T12:23:35.941Z,14.45
2023-03-22T12:24:38.741Z,14.44
2023-03-22T12:25:46.691Z,14.44
2023-03-22T12:26:52.914Z,14.38
2023-03-22T12:28:07.201Z,14.36
2023-03-22T12:29:18.324Z,14.31
2023-03-22T12:30:25.680Z,14.32
2023-03-22T12:31:37.489Z,14.34
2023-03-22T12:32:45.271Z,14.39
2023-03-22T12:33:51.547Z,14.42
2023-03-22T12:35:09.248Z,14.44
2023-03-22T12:36:23.908Z,14.43
2023-03-22T12:37:34.931Z,14.41
2023-03-22T12:38:43.625Z,14.42
2023-03-22T12:39:51.908Z,14.49
2023-03-22T12:40:57.971Z,14.54
2023-03-22T12:42:13.437Z,14.55
2023-03-22T12:43:27.902Z,14.54
2023-03-22T12:44:39.298Z,14.51
2023-03-22T12:45:56.066Z,14.50
2023-03-22T12:47:01.331Z,14.52
2023-03-22T12:48:16.998Z,14.54
2023-03-22T12:49:44.657Z,14.58
2023-03-22T12:50:53.220Z,14.54
2023-03-22T12:52:06.497Z,14.56
2023-03-22T12:53:15.370Z,14.61
2023-03-22T12:54:23.027Z,14.63
2023-03-22T12:55:30.805Z,14.63
2023-03-22T12:56:40.277Z,14.62
2023-03-22T12:57:43.004Z,14.61
2023-03-22T12:58:54.709Z,14.60
2023-03-22T13:00:05.365Z,14.60
2023-03-22T13:01:33.553Z,14.60
2023-03-22T13:02:37.110Z,14.61
2023-03-22T13:03:52.667Z,14.62
2023-03-22T13:05:00.939Z,14.60
2023-03-22T13:06:26.066Z,14.58
2023-03-22T13:07:31.678Z,14.57
2023-03-22T13:09:16.070Z,14.60
2023-03-22T13:10:31.426Z,14.60
2023-03-22T13:11:34.940Z,14.63
2023-03-22T13:12:37.893Z,14.66
2023-03-22T13:13:43.541Z,14.68
2023-03-22T13:14:49.742Z,14.71
2023-03-22T13:16:13.474Z,14.72
2023-03-22T13:17:22.848Z,14.72
2023-03-22T13:18:38.712Z,14.74
2023-03-22T13:19:57.186Z,14.76
2023-03-22T13:21:19.289Z,14.78
2023-03-22T13:22:36.436Z,14.82
2023-03-22T13:23:54.666Z,14.87
2023-03-22T13:25:13.492Z,14.89
2023-03-22T13:26:19.084Z,14.94
2023-03-22T13:27:22.324Z,14.92
2023-03-22T13:28:26.856Z,14.94
2023-03-22T13:29:32.731Z,14.95
2023-03-22T13:30:58.114Z,14.97
2023-03-22T13:32:04.286Z,14.98
2023-03-22T13:33:10.391Z,14.96
2023-03-22T13:34:18.193Z,14.94
2023-03-22T13:35:27.985Z,14.95
2023-03-22T13:36:32.235Z,14.94
2023-03-22T13:37:46.000Z,14.92
2023-03-22T13:38:56.329Z,14.91
2023-03-22T13:40:02.363Z,14.90
2023-03-22T13:41:24.645Z,14.86
2023-03-22T13:42:38.005Z,14.85
2023-03-22T13:43:44.244Z,14.86
2023-03-22T13:44:57.067Z,14.85
2023-03-22T13:46:17.959Z,14.85
2023-03-22T13:47:45.948Z,14.87
2023-03-22T13:48:49.476Z,14.90
2023-03-22T13:50:29.069Z,15.00
2023-03-22T13:51:32.747Z,15.01
2023-03-22T13:52:40.368Z,15.03
2023-03-22T13:53:56.063Z,15.07
2023-03-22T13:54:58.983Z,15.12
2023-03-22T13:56:05.688Z,15.17
2023-03-22T13:57:37.896Z,15.22
2023-03-22T13:58:46.731Z,15.27
2023-03-22T14:00:13.405Z,15.30
2023-03-22T14:01:24.018Z,15.31
2023-03-22T14:02:35.934Z,15.30
2023-03-22T14:03:42.532Z,15.27
2023-03-22T14:05:16.642Z,15.26
2023-03-22T14:06:25.097Z,15.25
2023-03-22T14:07:46.345Z,15.27
2023-03-22T14:08:53.498Z,15.22
2023-03-22T14:10:11.366Z,15.18
2023-03-22T14:11:48.804Z,15.14
2023-03-22T14:13:00.968Z,15.04
2023-03-22T14:14:11.089Z,14.99
2023-03-22T14:15:24.603Z,14.99
2023-03-22T14:16:48.795Z,14.96
2023-03-22T14:17:59.431Z,14.94
2023-03-22T14:19:05.625Z,14.92
2023-03-22T14:20:15.762Z,14.89
2023-03-22T14:21:23.545Z,14.87
